Time;durP1;ratioP1;P1;durP2;ratioP2;P2;SDS_P1;SDS_P2;PMS_P1;PMS_P2;Temp;Humidity;BMP_temperature;BMP_pressure;BME280_temperature;BME280_humidity;BME280_pressure;Samples;Min_cycle;Max_cycle;Signal;HPM_P1;HPM_P2
2022/02/21 00:01:26;;;;;;;;;;;;;;;;;;5095536;28;19908;-83
2022/02/21 00:03:51;;;;;;;;;;;;;;;;;;5077547;28;19973;-83
2022/02/21 00:06:18;;;;;;;;;;;;;;;;;;5077228;28;19912;-83
2022/02/21 00:08:43;;;;;;;;;;;;;;;;;;5077455;28;19908;-83
2022/02/21 00:11:08;;;;;;;;;;;;;;;;;;5077272;28;19915;-83
2022/02/21 00:13:33;;;;;;;;;;;;;;;;;;5077030;28;20394;-83
2022/02/21 00:15:59;;;;;;;;;;;;;;;;;;5076785;28;19916;-82
2022/02/21 00:18:24;;;;;;;;;;;;;;;;;;5095221;28;19915;-83
2022/02/21 00:20:49;;;;;;;;;;;;;;;;;;5077068;28;19919;-83
2022/02/21 00:23:14;;;;;;;;;;;;;;;;;;5077072;28;19912;-83
2022/02/21 00:25:39;;;;;;;;;;;;;;;;;;5076387;28;19996;-83
2022/02/21 00:28:04;;;;;;;;;;;;;;;;;;5076783;28;19958;-83
2022/02/21 00:30:29;;;;;;;;;;;;;;;;;;5094275;28;20382;-82
2022/02/21 00:32:54;;;;;;;;;;;;;;;;;;5076551;28;19908;-83
2022/02/21 00:35:20;;;;;;;;;;;;;;;;;;5076286;28;19920;-83
2022/02/21 00:37:45;;;;;;;;;;;;;;;;;;5076546;28;19962;-83
2022/02/21 00:40:10;;;;;;;;;;;;;;;;;;5076120;28;19908;-83
2022/02/21 00:42:35;;;;;;;;;;;;;;;;;;5076568;28;19908;-83
2022/02/21 00:45:00;;;;;;;;;;;;;;;;;;5076341;28;19908;-82
2022/02/21 00:47:25;;;;;;;;;;;;;;;;;;5076343;28;20373;-83
2022/02/21 00:49:50;;;;;;;;;;;;;;;;;;5076429;28;19915;-82
2022/02/21 00:52:15;;;;;;;;;;;;;;;;;;5076448;28;20271;-83
2022/02/21 00:54:40;;;;;;;;;;;;;;;;;;5076473;28;20375;-83
2022/02/21 00:57:05;;;;;;;;;;;;;;;;;;5094242;28;19920;-83
2022/02/21 00:59:31;;;;;;;;;;;;;;;;;;5076078;28;19958;-83
2022/02/21 01:01:56;;;;;;;;;;;;;;;;;;5076063;28;20001;-83
2022/02/21 01:04:21;;;;;;;;;;;;;;;;;;5094093;28;19974;-83
2022/02/21 01:06:46;;;;;;;;;;;;;;;;;;5075936;28;20006;-83
2022/02/21 01:09:11;;;;;;;;;;;;;;;;;;5075926;28;19915;-83
2022/02/21 01:11:36;;;;;;;;;;;;;;;;;;5075679;28;19965;-83
2022/02/21 01:14:01;;;;;;;;;;;;;;;;;;5094350;28;19909;-83
2022/02/21 01:16:27;;;;;;;;;;;;;;;;;;5093558;28;20363;-83
2022/02/21 01:18:52;;;;;;;;;;;;;;;;;;5075758;28;20003;-83
2022/02/21 01:21:17;;;;;;;;;;;;;;;;;;5075841;28;19931;-83
2022/02/21 01:23:42;;;;;;;;;;;;;;;;;;5075723;28;19912;-83
2022/02/21 01:26:08;;;;;;;;;;;;;;;;;;5075540;28;19916;-83
2022/02/21 01:28:33;;;;;;;;;;;;;;;;;;5075732;28;20430;-83
2022/02/21 01:30:58;;;;;;;;;;;;;;;;;;5093841;28;19918;-83
2022/02/21 01:33:23;;;;;;;;;;;;;;;;;;5075905;28;19915;-83
2022/02/21 01:35:48;;;;;;;;;;;;;;;;;;5075068;28;20333;-83
2022/02/21 01:38:13;;;;;;;;;;;;;;;;;;5075841;28;19954;-83
2022/02/21 01:40:38;;;;;;;;;;;;;;;;;;5075692;28;19908;-83
2022/02/21 01:43:03;;;;;;;;;;;;;;;;;;5075591;28;20370;-83
2022/02/21 01:45:29;;;;;;;;;;;;;;;;;;5075516;28;19973;-83
2022/02/21 01:47:54;;;;;;;;;;;;;;;;;;5075231;28;19973;-83
2022/02/21 01:50:19;;;;;;;;;;;;;;;;;;5075522;28;19966;-83
2022/02/21 01:52:44;;;;;;;;;;;;;;;;;;5075583;28;19920;-83
2022/02/21 01:55:11;;;;;;;;;;;;;;;;;;5075637;28;19908;-83
2022/02/21 01:57:36;;;;;;;;;;;;;;;;;;5075520;28;19999;-83
2022/02/21 02:00:01;;;;;;;;;;;;;;;;;;5075303;28;19985;-82
2022/02/21 02:02:26;;;;;;;;;;;;;;;;;;5075226;28;19999;-83
2022/02/21 02:04:51;;;;;;;;;;;;;;;;;;5075249;28;20334;-82
2022/02/21 02:07:16;;;;;;;;;;;;;;;;;;5075003;28;19912;-83
2022/02/21 02:09:41;;;;;;;;;;;;;;;;;;5093191;28;19908;-83
2022/02/21 02:12:06;;;;;;;;;;;;;;;;;;5075315;28;19908;-83
2022/02/21 02:14:31;;;;;;;;;;;;;;;;;;5075304;28;19934;-83
2022/02/21 02:16:56;;;;;;;;;;;;;;;;;;5075026;28;20336;-83
2022/02/21 02:19:22;;;;;;;;;;;;;;;;;;5075090;28;20351;-83
2022/02/21 02:21:47;;;;;;;;;;;;;;;;;;5075580;28;19908;-83
2022/02/21 02:24:12;;;;;;;;;;;;;;;;;;5075117;28;19915;-82
2022/02/21 02:26:37;;;;;;;;;;;;;;;;;;5093357;28;19945;-83
2022/02/21 02:29:02;;;;;;;;;;;;;;;;;;5075297;28;20560;-83
2022/02/21 02:31:27;;;;;;;;;;;;;;;;;;5078833;28;20382;-83
2022/02/21 02:33:52;;;;;;;;;;;;;;;;;;5054782;28;19923;-83
2022/02/21 02:36:17;;;;;;;;;;;;;;;;;;5066107;28;19923;-83
2022/02/21 02:38:42;;;;;;;;;;;;;;;;;;5074670;28;19923;-83
2022/02/21 02:41:07;;;;;;;;;;;;;;;;;;5075038;28;20413;-83
2022/02/21 02:43:32;;;;;;;;;;;;;;;;;;5074779;28;19904;-82
2022/02/21 02:45:58;;;;;;;;;;;;;;;;;;5074610;28;19919;-83
2022/02/21 02:48:26;;;;;;;;;;;;;;;;;;5093167;28;20383;-83
2022/02/21 02:50:51;;;;;;;;;;;;;;;;;;5074854;28;19908;-83
2022/02/21 02:53:16;;;;;;;;;;;;;;;;;;5074501;28;19904;-83
2022/02/21 02:55:41;;;;;;;;;;;;;;;;;;5074781;28;19912;-83
2022/02/21 02:58:06;;;;;;;;;;;;;;;;;;5074941;28;19908;-83
2022/02/21 03:00:31;;;;;;;;;;;;;;;;;;5075844;28;19909;-83
2022/02/21 03:02:56;;;;;;;;;;;;;;;;;;5078382;28;19999;-83
2022/02/21 03:05:21;;;;;;;;;;;;;;;;;;5078462;28;19908;-82
2022/02/21 03:07:46;;;;;;;;;;;;;;;;;;5078418;28;19908;-83
2022/02/21 03:10:11;;;;;;;;;;;;;;;;;;5078137;28;20413;-83
2022/02/21 03:12:36;;;;;;;;;;;;;;;;;;5077993;28;20027;-82
2022/02/21 03:15:02;;;;;;;;;;;;;;;;;;5078120;28;19912;-83
2022/02/21 03:17:27;;;;;;;;;;;;;;;;;;5077835;28;19922;-82
2022/02/21 03:19:52;;;;;;;;;;;;;;;;;;5096524;28;20404;-82
2022/02/21 03:22:17;;;;;;;;;;;;;;;;;;5096430;28;19908;-82
2022/02/21 03:24:42;;;;;;;;;;;;;;;;;;5078082;28;19908;-82
2022/02/21 03:27:07;;;;;;;;;;;;;;;;;;5077862;28;19908;-83
2022/02/21 03:29:32;;;;;;;;;;;;;;;;;;5078010;28;20283;-83
2022/02/21 03:31:57;;;;;;;;;;;;;;;;;;5077841;28;20005;-82
2022/02/21 03:34:22;;;;;;;;;;;;;;;;;;5077621;28;19969;-82
2022/02/21 03:36:48;;;;;;;;;;;;;;;;;;5095796;28;19924;-82
2022/02/21 03:39:13;;;;;;;;;;;;;;;;;;5077962;28;19912;-82
2022/02/21 03:41:38;;;;;;;;;;;;;;;;;;5077939;28;19966;-82
2022/02/21 03:44:03;;;;;;;;;;;;;;;;;;5077544;28;19912;-82
2022/02/21 03:46:28;;;;;;;;;;;;;;;;;;5077417;28;19916;-82
2022/02/21 03:48:53;;;;;;;;;;;;;;;;;;5077396;28;19912;-82
2022/02/21 03:51:18;;;;;;;;;;;;;;;;;;5095805;28;19908;-82
2022/02/21 03:53:44;;;;;;;;;;;;;;;;;;5077598;28;20291;-82
2022/02/21 03:56:09;;;;;;;;;;;;;;;;;;5077365;28;19916;-82
2022/02/21 03:58:34;;;;;;;;;;;;;;;;;;5077350;28;20368;-82
2022/02/21 04:00:59;;;;;;;;;;;;;;;;;;5077415;28;19916;-82
2022/02/21 04:03:24;;;;;;;;;;;;;;;;;;5076814;28;19912;-83
2022/02/21 04:05:49;;;;;;;;;;;;;;;;;;5076980;28;19912;-82
2022/02/21 04:08:14;;;;;;;;;;;;;;;;;;5077326;28;20293;-82
2022/02/21 04:10:39;;;;;;;;;;;;;;;;;;5094971;28;20326;-82
2022/02/21 04:13:04;;;;;;;;;;;;;;;;;;5076810;28;20387;-82
2022/02/21 04:15:30;;;;;;;;;;;;;;;;;;5076723;28;19957;-82
2022/02/21 04:17:55;;;;;;;;;;;;;;;;;;5095316;28;20275;-82
2022/02/21 04:20:20;;;;;;;;;;;;;;;;;;5077179;28;19908;-82
2022/02/21 04:22:45;;;;;;;;;;;;;;;;;;5076770;28;20003;-82
2022/02/21 04:25:10;;;;;;;;;;;;;;;;;;5076873;28;20245;-83
2022/02/21 04:27:35;;;;;;;;;;;;;;;;;;5095200;28;20385;-82
2022/02/21 04:30:00;;;;;;;;;;;;;;;;;;5076701;28;19908;-82
2022/02/21 04:32:25;;;;;;;;;;;;;;;;;;5077001;28;19908;-82
2022/02/21 04:34:50;;;;;;;;;;;;;;;;;;5076089;28;19986;-82
2022/02/21 04:37:15;;;;;;;;;;;;;;;;;;5076601;28;19924;-82
2022/02/21 04:39:41;;;;;;;;;;;;;;;;;;5076783;28;19908;-82
2022/02/21 04:42:06;;;;;;;;;;;;;;;;;;5076659;28;19908;-82
2022/02/21 04:44:31;;;;;;;;;;;;;;;;;;5076509;28;19908;-82
2022/02/21 04:46:56;;;;;;;;;;;;;;;;;;5076586;28;20279;-82
2022/02/21 04:49:21;;;;;;;;;;;;;;;;;;5076507;28;19908;-82
2022/02/21 04:51:46;;;;;;;;;;;;;;;;;;5076592;28;19915;-82
2022/02/21 04:54:11;;;;;;;;;;;;;;;;;;5076233;28;19912;-82
2022/02/21 04:56:36;;;;;;;;;;;;;;;;;;5094583;28;19912;-82
2022/02/21 04:59:01;;;;;;;;;;;;;;;;;;5075806;28;19912;-82
2022/02/21 05:01:27;;;;;;;;;;;;;;;;;;5075980;28;20517;-82
2022/02/21 05:03:52;;;;;;;;;;;;;;;;;;5094476;28;20679;-82
2022/02/21 05:06:17;;;;;;;;;;;;;;;;;;5075805;28;20330;-82
2022/02/21 05:08:42;;;;;;;;;;;;;;;;;;5075698;28;19912;-82
2022/02/21 05:11:07;;;;;;;;;;;;;;;;;;5076303;28;19973;-82
2022/02/21 05:13:32;;;;;;;;;;;;;;;;;;5076183;28;20385;-82
2022/02/21 05:15:57;;;;;;;;;;;;;;;;;;5075756;28;19912;-83
2022/02/21 05:18:22;;;;;;;;;;;;;;;;;;5076250;28;20011;-83
2022/02/21 05:20:47;;;;;;;;;;;;;;;;;;5075989;28;19918;-82
2022/02/21 05:23:13;;;;;;;;;;;;;;;;;;5093472;28;19908;-82
2022/02/21 05:25:38;;;;;;;;;;;;;;;;;;5076100;28;19908;-82
2022/02/21 05:28:03;;;;;;;;;;;;;;;;;;5075846;28;19908;-82
2022/02/21 05:30:28;;;;;;;;;;;;;;;;;;5075679;28;19981;-82
2022/02/21 05:32:54;;;;;;;;;;;;;;;;;;5075460;28;20372;-83
2022/02/21 05:35:19;;;;;;;;;;;;;;;;;;5075740;28;20011;-82
2022/02/21 05:37:44;;;;;;;;;;;;;;;;;;5075642;28;20011;-82
2022/02/21 05:40:09;;;;;;;;;;;;;;;;;;5075828;28;19918;-82
2022/02/21 05:42:34;;;;;;;;;;;;;;;;;;5075519;28;19908;-82
2022/02/21 05:44:59;;;;;;;;;;;;;;;;;;5075414;28;19958;-82
2022/02/21 05:47:24;;;;;;;;;;;;;;;;;;5075553;28;19908;-82
2022/02/21 05:49:49;;;;;;;;;;;;;;;;;;5075587;28;19958;-82
2022/02/21 05:52:14;;;;;;;;;;;;;;;;;;5093504;28;19970;-82
2022/02/21 05:54:39;;;;;;;;;;;;;;;;;;5075213;28;19934;-82
2022/02/21 05:57:05;;;;;;;;;;;;;;;;;;5093941;28;19923;-82
2022/02/21 05:59:30;;;;;;;;;;;;;;;;;;5075400;28;19913;-82
2022/02/21 06:01:55;;;;;;;;;;;;;;;;;;5075513;28;19908;-82
2022/02/21 06:04:20;;;;;;;;;;;;;;;;;;5075456;28;20363;-82
2022/02/21 06:06:45;;;;;;;;;;;;;;;;;;5075461;28;19909;-82
2022/02/21 06:09:10;;;;;;;;;;;;;;;;;;5075448;28;19908;-82
2022/02/21 06:11:35;;;;;;;;;;;;;;;;;;5075188;28;19915;-82
2022/02/21 06:14:01;;;;;;;;;;;;;;;;;;5093500;28;19908;-82
2022/02/21 06:16:26;;;;;;;;;;;;;;;;;;5074877;28;19912;-82
2022/02/21 06:18:51;;;;;;;;;;;;;;;;;;5093629;28;19908;-82
2022/02/21 06:21:16;;;;;;;;;;;;;;;;;;5093324;28;20248;-82
2022/02/21 06:23:41;;;;;;;;;;;;;;;;;;5075184;28;19912;-82
2022/02/21 06:26:06;;;;;;;;;;;;;;;;;;5074984;28;19913;-82
2022/02/21 06:28:31;;;;;;;;;;;;;;;;;;5075186;28;19908;-82
2022/02/21 06:30:56;;;;;;;;;;;;;;;;;;5074969;28;19951;-82
2022/02/21 06:33:21;;;;;;;;;;;;;;;;;;5075089;28;20272;-82
2022/02/21 06:35:47;;;;;;;;;;;;;;;;;;5078145;28;20275;-82
2022/02/21 06:38:12;;;;;;;;;;;;;;;;;;5078944;28;19919;-82
2022/02/21 06:40:37;;;;;;;;;;;;;;;;;;5078833;28;19978;-82
2022/02/21 06:43:02;;;;;;;;;;;;;;;;;;5078739;28;19908;-82
2022/02/21 06:45:27;;;;;;;;;;;;;;;;;;5078602;28;19908;-82
2022/02/21 06:47:52;;;;;;;;;;;;;;;;;;5077645;28;19912;-82
2022/02/21 06:50:17;;;;;;;;;;;;;;;;;;5077007;28;19912;-82
2022/02/21 06:52:42;;;;;;;;;;;;;;;;;;5077179;28;20364;-82
2022/02/21 06:55:07;;;;;;;;;;;;;;;;;;5076950;28;19934;-82
2022/02/21 06:57:33;;;;;;;;;;;;;;;;;;5077189;28;19965;-82
2022/02/21 06:59:58;;;;;;;;;;;;;;;;;;5095044;28;19912;-82
2022/02/21 07:02:23;;;;;;;;;;;;;;;;;;5076858;28;19912;-82
2022/02/21 07:04:48;;;;;;;;;;;;;;;;;;5085000;28;19912;-82
2022/02/21 07:07:14;;;;;;;;;;;;;;;;;;5079748;28;20320;-82
2022/02/21 07:09:39;;;;;;;;;;;;;;;;;;5087701;28;19963;-82
2022/02/21 07:12:04;;;;;;;;;;;;;;;;;;5098564;28;19922;-82
2022/02/21 07:14:29;;;;;;;;;;;;;;;;;;5104071;28;19954;-82
2022/02/21 07:16:54;;;;;;;;;;;;;;;;;;5095659;28;19923;-82
2022/02/21 07:19:20;;;;;;;;;;;;;;;;;;5077272;28;20563;-82
2022/02/21 07:21:45;;;;;;;;;;;;;;;;;;5114720;28;20378;-82
2022/02/21 07:24:10;;;;;;;;;;;;;;;;;;5094382;28;19919;-81
2022/02/21 07:26:35;;;;;;;;;;;;;;;;;;5094076;28;19912;-82
2022/02/21 07:29:00;;;;;;;;;;;;;;;;;;5101875;28;20333;-82
2022/02/21 07:31:25;;;;;;;;;;;;;;;;;;5093010;28;20002;-82
2022/02/21 07:33:50;;;;;;;;;;;;;;;;;;5085972;28;19995;-82
2022/02/21 07:36:15;;;;;;;;;;;;;;;;;;5078700;28;20014;-83
2022/02/21 07:38:40;;;;;;;;;;;;;;;;;;5077858;28;19908;-82
2022/02/21 07:41:06;;;;;;;;;;;;;;;;;;5078022;28;19908;-82
2022/02/21 07:43:31;;;;;;;;;;;;;;;;;;5077196;28;20335;-82
2022/02/21 07:45:56;;;;;;;;;;;;;;;;;;5076631;28;19926;-82
2022/02/21 07:48:21;;;;;;;;;;;;;;;;;;5077833;28;19926;-82
2022/02/21 07:50:47;;;;;;;;;;;;;;;;;;5077676;28;20382;-82
2022/02/21 07:53:12;;;;;;;;;;;;;;;;;;5077689;28;19930;-82
2022/02/21 07:55:37;;;;;;;;;;;;;;;;;;5077529;28;19908;-82
2022/02/21 07:58:02;;;;;;;;;;;;;;;;;;5077521;28;19916;-82
2022/02/21 08:00:27;;;;;;;;;;;;;;;;;;5072843;28;19919;-82
2022/02/21 08:02:52;;;;;;;;;;;;;;;;;;5075786;28;19993;-82
2022/02/21 08:05:17;;;;;;;;;;;;;;;;;;5077118;28;20292;-82
2022/02/21 08:07:44;;;;;;;;;;;;;;;;;;5077360;28;19908;-82
2022/02/21 08:10:09;;;;;;;;;;;;;;;;;;5075941;28;20014;-82
2022/02/21 08:12:34;;;;;;;;;;;;;;;;;;5076520;28;20007;-82
2022/02/21 08:14:59;;;;;;;;;;;;;;;;;;5077127;28;19961;-82
2022/02/21 08:17:28;;;;;;;;;;;;;;;;;;5075141;28;19920;-82
2022/02/21 08:19:53;;;;;;;;;;;;;;;;;;5076954;28;19951;-82
2022/02/21 08:22:18;;;;;;;;;;;;;;;;;;5077142;28;19955;-82
2022/02/21 08:24:43;;;;;;;;;;;;;;;;;;5094792;28;19999;-83
2022/02/21 08:27:08;;;;;;;;;;;;;;;;;;5076622;28;19912;-83
2022/02/21 08:29:34;;;;;;;;;;;;;;;;;;5074405;28;20359;-82
2022/02/21 08:31:59;;;;;;;;;;;;;;;;;;5075862;28;19962;-82
2022/02/21 08:34:24;;;;;;;;;;;;;;;;;;5076377;28;19916;-82
2022/02/21 08:36:50;;;;;;;;;;;;;;;;;;5075659;28;19916;-82
2022/02/21 08:39:15;;;;;;;;;;;;;;;;;;5076130;28;19908;-82
2022/02/21 08:41:41;;;;;;;;;;;;;;;;;;5076374;28;20371;-82
2022/02/21 08:44:06;;;;;;;;;;;;;;;;;;5076528;28;19912;-82
2022/02/21 08:46:31;;;;;;;;;;;;;;;;;;5075469;28;19912;-82
2022/02/21 08:48:58;;;;;;;;;;;;;;;;;;5094569;28;19904;-82
2022/02/21 08:51:23;;;;;;;;;;;;;;;;;;5076501;28;19926;-82
2022/02/21 08:53:48;;;;;;;;;;;;;;;;;;5076235;28;20288;-82
2022/02/21 08:56:14;;;;;;;;;;;;;;;;;;5094383;28;19986;-82
2022/02/21 08:58:39;;;;;;;;;;;;;;;;;;5076087;28;19908;-82
2022/02/21 09:01:04;;;;;;;;;;;;;;;;;;5093774;28;19966;-82
2022/02/21 09:03:29;;;;;;;;;;;;;;;;;;5075662;28;19912;-82
2022/02/21 09:05:54;;;;;;;;;;;;;;;;;;5093421;28;20279;-82
2022/02/21 09:08:19;;;;;;;;;;;;;;;;;;5062298;28;19920;-82
2022/02/21 09:10:44;;;;;;;;;;;;;;;;;;5066249;28;19912;-83
2022/02/21 09:13:09;;;;;;;;;;;;;;;;;;5094170;28;19919;-82
2022/02/21 09:15:35;;;;;;;;;;;;;;;;;;5075448;28;19919;-82
2022/02/21 09:18:02;;;;;;;;;;;;;;;;;;5075909;28;19908;-82
2022/02/21 09:20:27;;;;;;;;;;;;;;;;;;5091754;28;19920;-82
2022/02/21 09:22:52;;;;;;;;;;;;;;;;;;5075813;28;19908;-82
2022/02/21 09:25:18;;;;;;;;;;;;;;;;;;5075546;28;19950;-81
2022/02/21 09:27:43;;;;;;;;;;;;;;;;;;5093950;28;19908;-82
2022/02/21 09:30:08;;;;;;;;;;;;;;;;;;5075665;28;20350;-82
2022/02/21 09:32:33;;;;;;;;;;;;;;;;;;5093651;28;19916;-82
2022/02/21 09:34:58;;;;;;;;;;;;;;;;;;5075254;28;19916;-82
2022/02/21 09:37:24;;;;;;;;;;;;;;;;;;5074904;28;19916;-82
2022/02/21 09:39:51;;;;;;;;;;;;;;;;;;5074546;28;20198;-83
2022/02/21 09:42:16;;;;;;;;;;;;;;;;;;5075162;28;19955;-83
2022/02/21 09:44:41;;;;;;;;;;;;;;;;;;5075141;28;20002;-83
2022/02/21 09:47:06;;;;;;;;;;;;;;;;;;5075867;28;20284;-83
2022/02/21 09:49:31;;;;;;;;;;;;;;;;;;5075244;28;20338;-83
2022/02/21 09:51:56;;;;;;;;;;;;;;;;;;5075457;28;19959;-84
2022/02/21 09:54:23;;;;;;;;;;;;;;;;;;5074672;28;20648;-81
2022/02/21 09:56:48;;;;;;;;;;;;;;;;;;5075556;28;19919;-83
2022/02/21 09:59:13;;;;;;;;;;;;;;;;;;5092547;28;19912;-84
2022/02/21 10:01:38;;;;;;;;;;;;;;;;;;5074875;28;19919;-83
2022/02/21 10:04:03;;;;;;;;;;;;;;;;;;5075497;28;20291;-84
2022/02/21 10:06:32;;;;;;;;;;;;;;;;;;5076001;28;19916;-88
2022/02/21 10:08:57;;;;;;;;;;;;;;;;;;5076781;28;19987;-88
2022/02/21 10:11:22;;;;;;;;;;;;;;;;;;5080302;28;19947;-88
2022/02/21 10:13:47;;;;;;;;;;;;;;;;;;5080214;28;19908;-89
2022/02/21 10:16:12;;;;;;;;;;;;;;;;;;5079853;28;19916;-89
2022/02/21 10:18:39;;;;;;;;;;;;;;;;;;5080158;28;19908;-90
2022/02/21 10:21:04;;;;;;;;;;;;;;;;;;5079297;28;19912;-87
2022/02/21 10:23:30;;;;;;;;;;;;;;;;;;5097567;28;19908;-88
2022/02/21 10:25:55;;;;;;;;;;;;;;;;;;5079820;28;19908;-87
2022/02/21 10:28:20;;;;;;;;;;;;;;;;;;5097602;28;19942;-88
2022/02/21 10:30:45;;;;;;;;;;;;;;;;;;5079025;28;19973;-90
2022/02/21 10:33:10;;;;;;;;;;;;;;;;;;5079675;28;20583;-90
2022/02/21 10:35:35;;;;;;;;;;;;;;;;;;5079493;28;19912;-90
2022/02/21 10:38:02;;;;;;;;;;;;;;;;;;5079236;28;19912;-93
2022/02/21 10:40:27;;;;;;;;;;;;;;;;;;5080111;28;19915;-92
2022/02/21 10:42:52;;;;;;;;;;;;;;;;;;5080135;28;20368;-92
2022/02/21 10:45:17;;;;;;;;;;;;;;;;;;5080017;28;19916;-91
2022/02/21 10:47:42;;;;;;;;;;;;;;;;;;5079860;28;19943;-92
2022/02/21 10:50:07;;;;;;;;;;;;;;;;;;5079410;28;19916;-91
2022/02/21 10:52:35;;;;;;;;;;;;;;;;;;5079857;28;19961;-91
2022/02/21 10:55:00;;;;;;;;;;;;;;;;;;5079669;28;19908;-90
2022/02/21 10:57:27;;;;;;;;;;;;;;;;;;5079572;28;19912;-91
2022/02/21 10:59:52;;;;;;;;;;;;;;;;;;5079663;28;20030;-91
2022/02/21 11:02:17;;;;;;;;;;;;;;;;;;5079730;28;19944;-92
2022/02/21 11:04:42;;;;;;;;;;;;;;;;;;5079435;28;20272;-91
2022/02/21 11:07:07;;;;;;;;;;;;;;;;;;5079639;28;19909;-92
2022/02/21 11:09:33;;;;;;;;;;;;;;;;;;5078936;28;19908;-91
2022/02/21 11:11:58;;;;;;;;;;;;;;;;;;5079523;28;19946;-92
2022/02/21 11:14:25;;;;;;;;;;;;;;;;;;5079474;28;19915;-91
2022/02/21 11:16:50;;;;;;;;;;;;;;;;;;5079330;28;20018;-91
2022/02/21 11:19:15;;;;;;;;;;;;;;;;;;5078967;28;20004;-84
2022/02/21 11:21:40;;;;;;;;;;;;;;;;;;5076868;28;20396;-84
2022/02/21 11:24:05;;;;;;;;;;;;;;;;;;5076241;28;19920;-85
2022/02/21 11:26:30;;;;;;;;;;;;;;;;;;5096086;28;19923;-85
2022/02/21 11:28:57;;;;;;;;;;;;;;;;;;5077979;28;19916;-84
2022/02/21 11:31:22;;;;;;;;;;;;;;;;;;5089803;28;20300;-84
2022/02/21 11:33:47;;;;;;;;;;;;;;;;;;5072126;28;20363;-85
2022/02/21 11:36:12;;;;;;;;;;;;;;;;;;5077696;28;19916;-84
2022/02/21 11:38:40;;;;;;;;;;;;;;;;;;5076607;28;19938;-85
2022/02/21 11:41:05;;;;;;;;;;;;;;;;;;5077332;28;20338;-85
2022/02/21 11:43:30;;;;;;;;;;;;;;;;;;5093755;28;20451;-84
2022/02/21 11:45:55;;;;;;;;;;;;;;;;;;5076922;28;19943;-84
2022/02/21 11:48:20;;;;;;;;;;;;;;;;;;5077710;28;19908;-84
2022/02/21 11:50:45;;;;;;;;;;;;;;;;;;5077449;28;19908;-85
2022/02/21 11:53:10;;;;;;;;;;;;;;;;;;5076753;28;20659;-85
2022/02/21 11:55:36;;;;;;;;;;;;;;;;;;5084359;28;19923;-85
2022/02/21 11:58:01;;;;;;;;;;;;;;;;;;5111003;28;19912;-85
2022/02/21 12:00:26;;;;;;;;;;;;;;;;;;5115872;28;19915;-85
2022/02/21 12:02:52;;;;;;;;;;;;;;;;;;5107320;28;19912;-85
2022/02/21 12:05:17;;;;;;;;;;;;;;;;;;5081327;28;20267;-85
2022/02/21 12:07:42;;;;;;;;;;;;;;;;;;5096350;28;19911;-85
2022/02/21 12:10:07;;;;;;;;;;;;;;;;;;5074880;28;19920;-85
2022/02/21 12:12:32;;;;;;;;;;;;;;;;;;5091712;28;19912;-85
2022/02/21 12:14:57;;;;;;;;;;;;;;;;;;5076986;28;19912;-85
2022/02/21 12:17:22;;;;;;;;;;;;;;;;;;5097438;28;19912;-84
2022/02/21 12:19:47;;;;;;;;;;;;;;;;;;5084912;28;19926;-86
2022/02/21 12:22:12;;;;;;;;;;;;;;;;;;5096038;28;19923;-85
2022/02/21 12:24:37;;;;;;;;;;;;;;;;;;5081372;28;19923;-84
2022/02/21 12:27:02;;;;;;;;;;;;;;;;;;5113478;28;20367;-85
2022/02/21 12:29:28;;;;;;;;;;;;;;;;;;5095128;28;19912;-85
2022/02/21 12:31:53;;;;;;;;;;;;;;;;;;5092943;28;19912;-86
2022/02/21 12:34:19;;;;;;;;;;;;;;;;;;5079058;28;19922;-86
2022/02/21 12:36:44;;;;;;;;;;;;;;;;;;5114032;28;20298;-85
2022/02/21 12:39:09;;;;;;;;;;;;;;;;;;5086854;28;19916;-85
2022/02/21 12:41:34;;;;;;;;;;;;;;;;;;5079138;28;19912;-86
2022/02/21 12:44:00;;;;;;;;;;;;;;;;;;5075175;28;19919;-85
2022/02/21 12:46:25;;;;;;;;;;;;;;;;;;5080395;28;19937;-86
2022/02/21 12:48:50;;;;;;;;;;;;;;;;;;5088494;28;19951;-86
2022/02/21 12:51:15;;;;;;;;;;;;;;;;;;5074849;28;19959;-85
2022/02/21 12:53:40;;;;;;;;;;;;;;;;;;5079753;28;19912;-85
2022/02/21 12:56:06;;;;;;;;;;;;;;;;;;5085689;28;19931;-85
2022/02/21 12:58:31;;;;;;;;;;;;;;;;;;5087253;28;20313;-86
2022/02/21 13:00:56;;;;;;;;;;;;;;;;;;5075846;28;19915;-85
2022/02/21 13:03:21;;;;;;;;;;;;;;;;;;5079558;28;19916;-85
2022/02/21 13:05:46;;;;;;;;;;;;;;;;;;5076126;28;19908;-86
2022/02/21 13:08:12;;;;;;;;;;;;;;;;;;5076239;28;19908;-85
2022/02/21 13:10:37;;;;;;;;;;;;;;;;;;5076004;28;20359;-86
2022/02/21 13:13:02;;;;;;;;;;;;;;;;;;5078047;28;19958;-85
2022/02/21 13:15:27;;;;;;;;;;;;;;;;;;5087266;28;19951;-84
2022/02/21 13:17:52;;;;;;;;;;;;;;;;;;5105257;28;19924;-83
2022/02/21 13:20:18;;;;;;;;;;;;;;;;;;5075283;28;19961;-83
2022/02/21 13:22:43;;;;;;;;;;;;;;;;;;5075551;28;19916;-84
2022/02/21 13:25:08;;;;;;;;;;;;;;;;;;5074875;28;19916;-84
2022/02/21 13:27:33;;;;;;;;;;;;;;;;;;5094046;28;19962;-84
2022/02/21 13:29:58;;;;;;;;;;;;;;;;;;5075897;28;19912;-84
2022/02/21 13:32:29;;;;;;;;;;;;;;;;;;5075154;28;19912;-84
2022/02/21 13:34:54;;;;;;;;;;;;;;;;;;5075192;28;19916;-84
2022/02/21 13:37:19;;;;;;;;;;;;;;;;;;5075583;28;19999;-84
2022/02/21 13:39:44;;;;;;;;;;;;;;;;;;5075381;28;19912;-84
2022/02/21 13:42:10;;;;;;;;;;;;;;;;;;5075494;28;20619;-84
2022/02/21 13:44:35;;;;;;;;;;;;;;;;;;5074736;28;19916;-84
2022/02/21 13:47:00;;;;;;;;;;;;;;;;;;5074857;28;19912;-84
2022/02/21 13:49:25;;;;;;;;;;;;;;;;;;5092653;28;19935;-83
2022/02/21 13:51:50;;;;;;;;;;;;;;;;;;5075495;28;20381;-84
2022/02/21 13:54:15;;;;;;;;;;;;;;;;;;5075426;28;19961;-84
2022/02/21 13:56:40;;;;;;;;;;;;;;;;;;5074845;28;19961;-84
2022/02/21 13:59:08;;;;;;;;;;;;;;;;;;5075389;28;19912;-83
2022/02/21 14:01:36;;;;;;;;;;;;;;;;;;5075309;28;19909;-84
2022/02/21 14:04:01;;;;;;;;;;;;;;;;;;5075444;28;19951;-84
2022/02/21 14:06:26;;;;;;;;;;;;;;;;;;5075401;28;19950;-84
2022/02/21 14:08:51;;;;;;;;;;;;;;;;;;5074971;28;19954;-83
2022/02/21 14:11:16;;;;;;;;;;;;;;;;;;5075358;28;20429;-83
2022/02/21 14:13:41;;;;;;;;;;;;;;;;;;5075025;28;20433;-83
2022/02/21 14:16:06;;;;;;;;;;;;;;;;;;5074338;28;19927;-84
2022/02/21 14:18:32;;;;;;;;;;;;;;;;;;5074773;28;19958;-82
2022/02/21 14:20:57;;;;;;;;;;;;;;;;;;5075334;28;20283;-83
2022/02/21 14:23:23;;;;;;;;;;;;;;;;;;5075236;28;19915;-83
2022/02/21 14:25:49;;;;;;;;;;;;;;;;;;5075443;28;19926;-83
2022/02/21 14:28:14;;;;;;;;;;;;;;;;;;5074914;28;20018;-84
2022/02/21 14:30:39;;;;;;;;;;;;;;;;;;5075095;28;19985;-83
2022/02/21 14:33:04;;;;;;;;;;;;;;;;;;5093225;28;20011;-83
2022/02/21 14:35:32;;;;;;;;;;;;;;;;;;5074144;28;19916;-83
2022/02/21 14:37:57;;;;;;;;;;;;;;;;;;5073192;28;19916;-83
2022/02/21 14:40:22;;;;;;;;;;;;;;;;;;5073302;28;19920;-83
2022/02/21 14:42:47;;;;;;;;;;;;;;;;;;5073703;28;20373;-83
2022/02/21 14:45:12;;;;;;;;;;;;;;;;;;5073540;28;19904;-83
2022/02/21 14:47:37;;;;;;;;;;;;;;;;;;5073251;28;19912;-83
2022/02/21 14:50:02;;;;;;;;;;;;;;;;;;5073102;28;20333;-83
2022/02/21 14:52:27;;;;;;;;;;;;;;;;;;5073623;28;19962;-83
2022/02/21 14:54:52;;;;;;;;;;;;;;;;;;5073720;28;20006;-83
2022/02/21 14:57:18;;;;;;;;;;;;;;;;;;5076851;28;19912;-83
2022/02/21 14:59:43;;;;;;;;;;;;;;;;;;5076114;28;19912;-83
2022/02/21 15:02:08;;;;;;;;;;;;;;;;;;5078014;28;19916;-83
2022/02/21 15:04:33;;;;;;;;;;;;;;;;;;5096968;28;19935;-83
2022/02/21 15:06:59;;;;;;;;;;;;;;;;;;5078595;28;20382;-83
2022/02/21 15:09:25;;;;;;;;;;;;;;;;;;5096270;28;19955;-84
2022/02/21 15:11:50;;;;;;;;;;;;;;;;;;5096431;28;20410;-83
2022/02/21 15:14:15;;;;;;;;;;;;;;;;;;5059002;28;19920;-82
2022/02/21 15:16:40;;;;;;;;;;;;;;;;;;5074436;28;19919;-82
2022/02/21 15:19:05;;;;;;;;;;;;;;;;;;5082739;28;20284;-83
2022/02/21 15:21:30;;;;;;;;;;;;;;;;;;5091894;28;19913;-83
2022/02/21 15:23:55;;;;;;;;;;;;;;;;;;5076146;28;19912;-84
2022/02/21 15:26:20;;;;;;;;;;;;;;;;;;5091230;28;19919;-85
2022/02/21 15:28:46;;;;;;;;;;;;;;;;;;5091505;28;19912;-85
2022/02/21 15:31:11;;;;;;;;;;;;;;;;;;5091634;28;19912;-84
2022/02/21 15:33:36;;;;;;;;;;;;;;;;;;5091607;28;20348;-85
2022/02/21 15:36:01;;;;;;;;;;;;;;;;;;5095747;28;19923;-85
2022/02/21 15:38:26;;;;;;;;;;;;;;;;;;5091547;28;19909;-85
2022/02/21 15:40:52;;;;;;;;;;;;;;;;;;5091483;28;20675;-84
2022/02/21 15:43:17;;;;;;;;;;;;;;;;;;5094745;28;19966;-84
2022/02/21 15:45:42;;;;;;;;;;;;;;;;;;5075654;28;20004;-85
2022/02/21 15:48:07;;;;;;;;;;;;;;;;;;5094013;28;19914;-85
2022/02/21 15:50:35;;;;;;;;;;;;;;;;;;5075990;28;19999;-85
2022/02/21 15:53:01;;;;;;;;;;;;;;;;;;5076474;28;20309;-85
2022/02/21 15:55:26;;;;;;;;;;;;;;;;;;5094180;28;20376;-85
2022/02/21 15:57:51;;;;;;;;;;;;;;;;;;5075491;28;19916;-85
2022/02/21 16:00:17;;;;;;;;;;;;;;;;;;5094569;28;19951;-86
2022/02/21 16:02:42;;;;;;;;;;;;;;;;;;5094033;28;20334;-86
2022/02/21 16:05:07;;;;;;;;;;;;;;;;;;5076014;28;20360;-85
2022/02/21 16:07:32;;;;;;;;;;;;;;;;;;5075380;28;19912;-85
2022/02/21 16:09:57;;;;;;;;;;;;;;;;;;5077033;28;19920;-86
2022/02/21 16:12:22;;;;;;;;;;;;;;;;;;5076817;28;19912;-85
2022/02/21 16:14:48;;;;;;;;;;;;;;;;;;5094853;28;19912;-86
2022/02/21 16:17:13;;;;;;;;;;;;;;;;;;5076321;28;19977;-85
2022/02/21 16:19:38;;;;;;;;;;;;;;;;;;5076681;28;20053;-86
2022/02/21 16:22:03;;;;;;;;;;;;;;;;;;5076912;28;19908;-85
2022/02/21 16:24:28;;;;;;;;;;;;;;;;;;5076743;28;20273;-86
2022/02/21 16:26:53;;;;;;;;;;;;;;;;;;5092541;28;19965;-85
2022/02/21 16:29:20;;;;;;;;;;;;;;;;;;5073117;28;20279;-86
2022/02/21 16:31:45;;;;;;;;;;;;;;;;;;5076211;28;20010;-86